createdAt,value
2016-10-24T00:01:03.921Z,0
2016-10-24T00:02:16.888Z,0
2016-10-24T00:03:29.952Z,0
2016-10-24T00:04:42.874Z,0
2016-10-24T00:05:55.819Z,0
2016-10-24T00:07:08.827Z,0
2016-10-24T00:08:21.229Z,0
2016-10-24T00:09:34.171Z,0
2016-10-24T00:10:47.680Z,0
2016-10-24T00:12:01.138Z,0
2016-10-24T00:13:14.011Z,0
2016-10-24T00:14:27.143Z,0
2016-10-24T00:15:40.114Z,0
2016-10-24T00:16:53.094Z,0
2016-10-24T00:18:06.552Z,0
2016-10-24T00:19:19.649Z,0
2016-10-24T00:20:32.066Z,0
2016-10-24T00:21:44.989Z,0
2016-10-24T00:22:57.485Z,0
2016-10-24T00:24:10.957Z,0
2016-10-24T00:25:24.033Z,0
2016-10-24T00:26:35.918Z,0
2016-10-24T00:27:48.310Z,0
2016-10-24T00:29:01.227Z,0
2016-10-24T00:30:14.373Z,0
2016-10-24T00:31:25.721Z,0
2016-10-24T00:32:39.192Z,0
2016-10-24T00:33:51.659Z,0
2016-10-24T00:35:04.601Z,0
2016-10-24T00:36:17.746Z,0
2016-10-24T00:37:30.734Z,0
2016-10-24T00:38:44.242Z,0
2016-10-24T00:39:57.181Z,0
2016-10-24T00:41:10.345Z,0
2016-10-24T00:42:22.787Z,0
2016-10-24T00:43:35.224Z,0
2016-10-24T00:44:48.182Z,0
2016-10-24T00:46:01.121Z,0
2016-10-24T00:47:14.800Z,0
2016-10-24T00:48:27.331Z,0
2016-10-24T00:49:40.264Z,0
2016-10-24T00:50:53.158Z,0
2016-10-24T00:52:06.121Z,0
2016-10-24T00:53:19.601Z,0
2016-10-24T00:54:32.754Z,0
2016-10-24T00:55:44.637Z,0
2016-10-24T00:56:57.546Z,0
2016-10-24T00:58:11.221Z,0
2016-10-24T00:59:23.649Z,0
2016-10-24T01:00:36.610Z,0
2016-10-24T01:01:49.046Z,0
2016-10-24T01:03:01.449Z,0
2016-10-24T01:04:14.301Z,0
2016-10-24T01:05:26.710Z,0
2016-10-24T01:06:39.182Z,0
2016-10-24T01:07:52.647Z,0
2016-10-24T01:09:06.299Z,0
2016-10-24T01:10:19.273Z,0
2016-10-24T01:11:31.707Z,0
2016-10-24T01:12:44.722Z,0
2016-10-24T01:13:57.191Z,0
2016-10-24T01:15:09.635Z,0
2016-10-24T01:16:22.053Z,0
2016-10-24T01:17:34.945Z,0
2016-10-24T01:18:48.484Z,0
2016-10-24T01:20:01.632Z,0
2016-10-24T01:21:15.062Z,0
2016-10-24T01:22:28.015Z,0
2016-10-24T01:23:40.460Z,0
2016-10-24T01:24:54.103Z,0
2016-10-24T01:26:07.066Z,0
2016-10-24T01:27:20.561Z,0
2016-10-24T01:28:34.037Z,0
2016-10-24T01:29:45.975Z,0
2016-10-24T01:30:58.960Z,0
2016-10-24T01:32:11.412Z,0
2016-10-24T01:33:24.359Z,0
2016-10-24T01:34:36.757Z,0
2016-10-24T01:35:49.689Z,0
2016-10-24T01:37:02.690Z,0
2016-10-24T01:38:16.143Z,0
2016-10-24T01:39:29.067Z,0
2016-10-24T01:40:41.480Z,0
2016-10-24T01:41:54.499Z,0
2016-10-24T01:43:07.480Z,0
2016-10-24T01:44:19.946Z,0
2016-10-24T01:45:32.376Z,0
2016-10-24T01:46:45.817Z,0
2016-10-24T01:47:57.708Z,0
2016-10-24T01:49:11.160Z,0
2016-10-24T01:50:23.052Z,0
2016-10-24T01:51:35.471Z,0
2016-10-24T01:52:48.495Z,0
2016-10-24T01:54:00.985Z,0
2016-10-24T01:55:13.951Z,0
2016-10-24T01:56:26.882Z,0
2016-10-24T01:57:40.341Z,0
2016-10-24T01:58:53.325Z,0
2016-10-24T02:00:05.287Z,0
2016-10-24T02:01:18.234Z,0
2016-10-24T02:02:30.669Z,0
2016-10-24T02:03:43.201Z,0
2016-10-24T02:04:56.666Z,0
2016-10-24T02:06:09.643Z,0
2016-10-24T02:07:22.079Z,0
2016-10-24T02:08:34.535Z,0
2016-10-24T02:09:47.588Z,0
2016-10-24T02:11:00.032Z,0
2016-10-24T02:12:11.993Z,0
2016-10-24T02:13:25.528Z,0
2016-10-24T02:14:38.589Z,0
2016-10-24T02:15:51.623Z,0
2016-10-24T02:17:04.056Z,0
2016-10-24T02:18:17.072Z,0
2016-10-24T02:19:29.999Z,0
2016-10-24T02:20:42.453Z,0
2016-10-24T02:21:55.951Z,0
2016-10-24T02:23:08.897Z,0
2016-10-24T02:24:21.866Z,0
2016-10-24T02:25:34.965Z,0
2016-10-24T02:26:48.408Z,0
2016-10-24T02:28:01.405Z,0
2016-10-24T02:29:14.352Z,0
2016-10-24T02:30:27.807Z,0
2016-10-24T02:31:40.172Z,0
2016-10-24T02:32:53.085Z,0
2016-10-24T02:34:06.111Z,0
2016-10-24T02:35:19.617Z,0
2016-10-24T02:36:32.702Z,0
2016-10-24T02:37:45.614Z,0
2016-10-24T02:38:58.639Z,0
2016-10-24T02:40:11.564Z,0
2016-10-24T02:41:25.283Z,0
2016-10-24T02:42:37.744Z,0
2016-10-24T02:43:51.171Z,0
2016-10-24T02:45:03.615Z,0
2016-10-24T02:46:17.137Z,0
2016-10-24T02:47:30.750Z,0
2016-10-24T02:48:43.204Z,0
2016-10-24T02:49:56.630Z,0
2016-10-24T02:51:10.071Z,0
2016-10-24T02:52:23.103Z,0
2016-10-24T02:53:36.047Z,0
2016-10-24T02:54:49.575Z,0
2016-10-24T02:56:01.988Z,0
2016-10-24T02:57:14.425Z,0
2016-10-24T02:58:27.415Z,0
2016-10-24T02:59:40.325Z,0
2016-10-24T03:00:53.833Z,0
2016-10-24T03:02:05.765Z,0
2016-10-24T03:03:18.259Z,0
2016-10-24T03:04:31.218Z,0
2016-10-24T03:05:44.182Z,0
2016-10-24T03:06:56.624Z,0
2016-10-24T03:08:09.627Z,0
2016-10-24T03:09:23.201Z,0
2016-10-24T03:10:36.121Z,0
2016-10-24T03:11:48.553Z,0
2016-10-24T03:13:00.939Z,0
2016-10-24T03:14:14.518Z,0
2016-10-24T03:15:26.987Z,0
2016-10-24T03:16:39.395Z,0
2016-10-24T03:17:52.875Z,0
2016-10-24T03:19:05.796Z,0
2016-10-24T03:20:18.927Z,0
2016-10-24T03:21:30.849Z,0
2016-10-24T03:22:43.281Z,0
2016-10-24T03:23:56.221Z,0
2016-10-24T03:25:09.174Z,0
2016-10-24T03:26:21.614Z,0
2016-10-24T03:27:34.053Z,0
2016-10-24T03:28:46.512Z,0
2016-10-24T03:29:58.954Z,0
2016-10-24T03:31:12.113Z,0
2016-10-24T03:32:25.097Z,0
2016-10-24T03:33:38.080Z,0
2016-10-24T03:34:49.953Z,0
2016-10-24T03:36:03.404Z,0
2016-10-24T03:37:16.870Z,0
2016-10-24T03:38:29.825Z,0
2016-10-24T03:39:42.777Z,0
2016-10-24T03:40:55.738Z,0
2016-10-24T03:42:08.302Z,0
2016-10-24T03:43:19.632Z,0
2016-10-24T03:44:32.596Z,0
2016-10-24T03:45:44.969Z,0
2016-10-24T03:46:58.014Z,0
2016-10-24T03:48:10.919Z,0
2016-10-24T03:49:22.785Z,0
2016-10-24T03:50:36.313Z,0
2016-10-24T03:51:49.332Z,0
2016-10-24T03:53:02.339Z,0
2016-10-24T03:54:14.235Z,0
2016-10-24T03:55:26.658Z,0
2016-10-24T03:56:38.627Z,0
2016-10-24T03:57:51.088Z,0
2016-10-24T03:59:03.981Z,0
2016-10-24T04:00:17.466Z,0
2016-10-24T04:01:29.360Z,0
2016-10-24T04:02:42.896Z,0
2016-10-24T04:03:56.109Z,0
2016-10-24T04:05:09.145Z,0
2016-10-24T04:06:22.087Z,0
2016-10-24T04:07:35.554Z,0
2016-10-24T04:08:49.065Z,0
2016-10-24T04:10:02.023Z,0
2016-10-24T04:11:15.001Z,0
2016-10-24T04:12:27.503Z,0
2016-10-24T04:13:40.468Z,0
2016-10-24T04:14:53.046Z,0
2016-10-24T04:16:06.069Z,0
2016-10-24T04:17:19.024Z,0
2016-10-24T04:18:32.065Z,0
2016-10-24T04:19:44.954Z,0
2016-10-24T04:20:57.902Z,0
2016-10-24T04:22:10.329Z,0
2016-10-24T04:23:23.806Z,0
2016-10-24T04:24:35.744Z,0
2016-10-24T04:25:49.593Z,0
2016-10-24T04:27:02.031Z,0
2016-10-24T04:28:14.499Z,0
2016-10-24T04:29:27.530Z,0
2016-10-24T04:30:40.536Z,0
2016-10-24T04:31:52.993Z,0
2016-10-24T04:33:05.468Z,0
2016-10-24T04:34:19.045Z,0
2016-10-24T04:35:31.545Z,0
2016-10-24T04:36:45.140Z,0
2016-10-24T04:37:57.609Z,0
2016-10-24T04:39:10.042Z,0
2016-10-24T04:40:23.503Z,0
2016-10-24T04:41:37.097Z,0
2016-10-24T04:42:49.538Z,0
2016-10-24T04:44:01.977Z,0
2016-10-24T04:45:15.402Z,0
2016-10-24T04:46:28.374Z,0
2016-10-24T04:47:41.428Z,0
2016-10-24T04:48:54.988Z,0
2016-10-24T04:50:07.404Z,0
2016-10-24T04:51:20.912Z,0
2016-10-24T04:52:34.532Z,0
2016-10-24T04:53:47.441Z,0
2016-10-24T04:55:00.445Z,0
2016-10-24T04:56:11.902Z,0
2016-10-24T04:57:24.850Z,0
2016-10-24T04:58:37.955Z,0
2016-10-24T04:59:50.851Z,0
2016-10-24T05:01:02.221Z,0
2016-10-24T05:02:15.241Z,0
2016-10-24T05:03:28.314Z,0
2016-10-24T05:04:40.865Z,0
2016-10-24T05:05:53.851Z,0
2016-10-24T05:07:06.825Z,0
2016-10-24T05:08:20.021Z,0
2016-10-24T05:09:33.134Z,0
2016-10-24T05:10:46.652Z,0
2016-10-24T05:11:59.650Z,0
2016-10-24T05:13:12.767Z,0
2016-10-24T05:14:25.176Z,0
2016-10-24T05:15:37.061Z,0
2016-10-24T05:16:49.434Z,0
2016-10-24T05:18:02.361Z,0
2016-10-24T05:19:14.378Z,0
2016-10-24T05:20:27.935Z,0
2016-10-24T05:21:39.943Z,0
2016-10-24T05:22:52.920Z,0
2016-10-24T05:24:05.476Z,0
2016-10-24T05:25:18.432Z,0
2016-10-24T05:26:31.369Z,0
2016-10-24T05:27:43.932Z,0
2016-10-24T05:28:56.523Z,0
2016-10-24T05:30:10.039Z,0
2016-10-24T05:31:21.563Z,0
2016-10-24T05:32:34.513Z,0
2016-10-24T05:33:47.420Z,0
2016-10-24T05:34:59.845Z,0
2016-10-24T05:36:13.106Z,0
2016-10-24T05:37:26.649Z,0
2016-10-24T05:38:38.642Z,0
2016-10-24T05:39:51.085Z,0
2016-10-24T05:41:04.550Z,0
2016-10-24T05:42:17.606Z,0
2016-10-24T05:43:31.062Z,0
2016-10-24T05:44:44.000Z,0
2016-10-24T05:45:56.412Z,0
2016-10-24T05:47:10.092Z,0
2016-10-24T05:48:23.613Z,0
2016-10-24T05:49:37.052Z,0
2016-10-24T05:50:50.194Z,0
2016-10-24T05:52:03.652Z,0
2016-10-24T05:53:15.839Z,0
2016-10-24T05:54:28.426Z,0
2016-10-24T05:55:41.322Z,0
2016-10-24T05:56:54.889Z,0
2016-10-24T05:58:07.810Z,0
2016-10-24T05:59:21.515Z,0
2016-10-24T06:00:34.629Z,0
2016-10-24T06:01:48.140Z,0
2016-10-24T06:03:01.116Z,0
2016-10-24T06:04:13.573Z,0
2016-10-24T06:05:26.512Z,0
2016-10-24T06:06:38.937Z,0
2016-10-24T06:07:52.408Z,0
2016-10-24T06:09:04.855Z,0
2016-10-24T06:10:17.437Z,0
2016-10-24T06:11:30.444Z,0
2016-10-24T06:12:43.116Z,0
2016-10-24T06:13:55.587Z,0
2016-10-24T06:15:08.129Z,0
2016-10-24T06:16:21.226Z,0
2016-10-24T06:17:34.277Z,0
2016-10-24T06:18:47.212Z,0
2016-10-24T06:20:00.136Z,0
2016-10-24T06:21:13.117Z,0
2016-10-24T06:22:26.040Z,0
2016-10-24T06:23:38.635Z,0
2016-10-24T06:24:52.101Z,0
2016-10-24T06:26:05.400Z,0
2016-10-24T06:27:18.033Z,0
2016-10-24T06:28:30.929Z,0
2016-10-24T06:29:43.583Z,0
2016-10-24T06:30:56.971Z,0
2016-10-24T06:32:09.396Z,0
2016-10-24T06:33:21.904Z,0
2016-10-24T06:34:34.908Z,0
2016-10-24T06:35:47.837Z,0
2016-10-24T06:37:00.408Z,0
2016-10-24T06:38:13.431Z,0
2016-10-24T06:39:26.525Z,0
2016-10-24T06:40:39.979Z,0
2016-10-24T06:41:53.078Z,0
2016-10-24T06:43:04.998Z,0
2016-10-24T06:44:17.961Z,0
2016-10-24T06:45:31.604Z,0
2016-10-24T06:46:45.192Z,0
2016-10-24T06:47:58.847Z,0
2016-10-24T06:49:11.813Z,0
2016-10-24T06:50:24.936Z,0
2016-10-24T06:51:38.096Z,0
2016-10-24T06:52:51.719Z,0
2016-10-24T06:54:04.640Z,0
2016-10-24T06:55:17.124Z,0
2016-10-24T06:56:30.107Z,0
2016-10-24T06:57:43.030Z,0
2016-10-24T06:58:55.686Z,0
2016-10-24T07:00:08.645Z,0
2016-10-24T07:01:21.110Z,0
2016-10-24T07:02:33.750Z,0
2016-10-24T07:03:46.402Z,0
2016-10-24T07:04:59.941Z,0
2016-10-24T07:06:13.407Z,0
2016-10-24T07:07:26.849Z,0
2016-10-24T07:08:40.515Z,0
2016-10-24T07:09:53.688Z,0
2016-10-24T07:11:05.054Z,0
2016-10-24T07:12:18.656Z,0
2016-10-24T07:13:31.135Z,0
2016-10-24T07:14:43.643Z,0
2016-10-24T07:15:56.664Z,0
2016-10-24T07:17:09.096Z,0
2016-10-24T07:18:22.113Z,0
2016-10-24T07:19:35.561Z,0
2016-10-24T07:20:47.622Z,0
2016-10-24T07:22:01.124Z,0
2016-10-24T07:23:13.625Z,0
2016-10-24T07:24:26.112Z,0
2016-10-24T07:25:39.682Z,0
2016-10-24T07:26:52.664Z,0
2016-10-24T07:28:05.089Z,0
2016-10-24T07:29:17.538Z,0
2016-10-24T07:30:30.648Z,0
2016-10-24T07:31:42.773Z,0
2016-10-24T07:32:55.985Z,0
2016-10-24T07:34:09.620Z,0
2016-10-24T07:35:22.698Z,0
2016-10-24T07:36:35.678Z,0
2016-10-24T07:37:48.719Z,0
2016-10-24T07:39:01.666Z,0
2016-10-24T07:40:14.781Z,0
2016-10-24T07:41:27.822Z,0
2016-10-24T07:42:40.404Z,0
2016-10-24T07:43:53.878Z,0
2016-10-24T07:45:05.809Z,0
2016-10-24T07:46:18.783Z,0
2016-10-24T07:47:31.720Z,0
2016-10-24T07:48:44.707Z,0
2016-10-24T07:49:57.810Z,0
2016-10-24T07:51:11.276Z,0
2016-10-24T07:52:24.185Z,0
2016-10-24T07:53:37.293Z,0
2016-10-24T07:54:50.230Z,0
2016-10-24T07:56:03.194Z,0
2016-10-24T07:57:15.044Z,0
2016-10-24T07:58:27.936Z,0
2016-10-24T07:59:41.349Z,0
2016-10-24T08:00:54.835Z,0
2016-10-24T08:02:08.305Z,0
2016-10-24T08:03:20.729Z,0
2016-10-24T08:04:32.335Z,0
2016-10-24T08:05:45.265Z,0
2016-10-24T08:06:58.228Z,0
2016-10-24T08:08:11.128Z,0
2016-10-24T08:09:24.137Z,0
2016-10-24T08:10:36.568Z,0
2016-10-24T08:11:50.028Z,0
2016-10-24T08:13:02.982Z,0
2016-10-24T08:14:15.936Z,0
2016-10-24T08:15:29.574Z,0
2016-10-24T08:16:41.986Z,0
2016-10-24T08:17:54.930Z,0
2016-10-24T08:19:07.364Z,0
2016-10-24T08:20:20.484Z,0
2016-10-24T08:21:33.400Z,0
2016-10-24T08:22:46.880Z,0
2016-10-24T08:23:59.762Z,0
2016-10-24T08:25:12.696Z,0
2016-10-24T08:26:25.705Z,0
2016-10-24T08:27:39.108Z,0
2016-10-24T08:28:50.601Z,0
2016-10-24T08:30:03.575Z,0
2016-10-24T08:31:16.612Z,0
2016-10-24T08:32:29.037Z,0
2016-10-24T08:33:41.949Z,0
2016-10-24T08:34:54.870Z,0
2016-10-24T08:36:08.328Z,0
2016-10-24T08:37:21.408Z,0
2016-10-24T08:38:34.933Z,0
2016-10-24T08:39:48.042Z,0
2016-10-24T08:41:01.004Z,0
2016-10-24T08:42:12.927Z,0
2016-10-24T08:43:25.912Z,0
2016-10-24T08:44:38.874Z,0
2016-10-24T08:45:51.855Z,0
2016-10-24T08:47:04.884Z,5
2016-10-24T08:48:18.131Z,5
2016-10-24T08:49:31.657Z,5
2016-10-24T08:50:43.609Z,5
2016-10-24T08:51:56.792Z,5
2016-10-24T08:53:09.208Z,5
2016-10-24T08:54:21.705Z,5
2016-10-24T08:55:34.748Z,5
2016-10-24T08:56:47.832Z,5
2016-10-24T08:58:00.286Z,5
2016-10-24T08:59:14.652Z,5
2016-10-24T09:00:27.634Z,5
2016-10-24T09:01:39.546Z,10
2016-10-24T09:02:52.524Z,10
2016-10-24T09:04:05.046Z,10
2016-10-24T09:05:18.470Z,10
2016-10-24T09:06:31.415Z,10
2016-10-24T09:07:43.451Z,10
2016-10-24T09:08:55.869Z,10
2016-10-24T09:10:07.443Z,10
2016-10-24T09:11:21.006Z,10
2016-10-24T09:12:34.005Z,10
2016-10-24T09:13:46.392Z,10
2016-10-24T09:14:58.552Z,15
2016-10-24T09:16:11.960Z,15
2016-10-24T09:17:25.790Z,15
2016-10-24T09:18:38.573Z,15
2016-10-24T09:19:52.606Z,20
2016-10-24T09:21:05.188Z,20
2016-10-24T09:22:17.715Z,25
2016-10-24T09:23:31.003Z,25
2016-10-24T09:24:43.885Z,30
2016-10-24T09:25:56.964Z,30
2016-10-24T09:27:11.442Z,30
2016-10-24T09:28:25.198Z,30
2016-10-24T09:29:38.307Z,30
2016-10-24T09:30:50.778Z,30
2016-10-24T09:32:02.296Z,25
2016-10-24T09:33:15.765Z,25
2016-10-24T09:34:29.397Z,20
2016-10-24T09:35:42.499Z,25
2016-10-24T09:36:55.356Z,25
2016-10-24T09:38:09.097Z,25
2016-10-24T09:39:22.148Z,25
2016-10-24T09:40:34.583Z,30
2016-10-24T09:41:47.557Z,35
2016-10-24T09:43:00.703Z,35
2016-10-24T09:44:13.762Z,40
2016-10-24T09:45:26.791Z,40
2016-10-24T09:46:39.749Z,40
2016-10-24T09:47:52.753Z,40
2016-10-24T09:49:06.289Z,45
2016-10-24T09:50:18.793Z,45
2016-10-24T09:51:31.859Z,45
2016-10-24T09:52:45.322Z,45
2016-10-24T09:53:58.886Z,40
2016-10-24T09:55:12.563Z,40
2016-10-24T09:56:25.437Z,40
2016-10-24T09:57:38.429Z,45
2016-10-24T09:58:51.443Z,45
2016-10-24T10:00:04.863Z,45
2016-10-24T10:01:18.551Z,45
2016-10-24T10:02:30.940Z,50
2016-10-24T10:03:45.400Z,50
2016-10-24T10:04:58.938Z,55
2016-10-24T10:06:11.926Z,55
2016-10-24T10:07:24.876Z,60
2016-10-24T10:08:38.451Z,60
2016-10-24T10:09:51.077Z,60
2016-10-24T10:11:04.076Z,60
2016-10-24T10:12:16.468Z,60
2016-10-24T10:13:29.395Z,60
2016-10-24T10:14:42.901Z,60
2016-10-24T10:15:56.085Z,60
2016-10-24T10:17:08.515Z,60
2016-10-24T10:18:20.894Z,60
2016-10-24T10:19:33.953Z,60
2016-10-24T10:20:47.649Z,60
2016-10-24T10:22:00.197Z,65
2016-10-24T10:23:12.167Z,70
2016-10-24T10:24:24.610Z,65
2016-10-24T10:25:37.678Z,65
2016-10-24T10:26:50.465Z,65
2016-10-24T10:28:03.457Z,70
2016-10-24T10:29:15.550Z,70
2016-10-24T10:30:28.485Z,70
2016-10-24T10:31:41.912Z,70
2016-10-24T10:32:55.419Z,70
2016-10-24T10:34:13.598Z,70
2016-10-24T10:35:37.024Z,75
2016-10-24T10:37:02.656Z,75
2016-10-24T10:38:17.723Z,75
2016-10-24T10:39:30.121Z,75
2016-10-24T10:40:43.361Z,70
2016-10-24T10:41:56.409Z,70
2016-10-24T10:43:09.894Z,75
2016-10-24T10:44:22.363Z,80
2016-10-24T10:45:35.374Z,80
2016-10-24T10:46:49.149Z,80
2016-10-24T10:48:02.123Z,70
2016-10-24T10:49:14.550Z,70
2016-10-24T10:50:27.164Z,70
2016-10-24T10:51:40.139Z,70
2016-10-24T10:52:53.763Z,70
2016-10-24T10:54:07.317Z,80
2016-10-24T10:55:20.711Z,85
2016-10-24T10:56:33.222Z,80
2016-10-24T10:57:46.539Z,85
2016-10-24T10:58:59.636Z,90
2016-10-24T11:00:13.170Z,95
2016-10-24T11:01:26.634Z,95
2016-10-24T11:02:40.098Z,90
2016-10-24T11:03:53.797Z,90
2016-10-24T11:05:06.749Z,85
2016-10-24T11:06:18.718Z,85
2016-10-24T11:07:31.724Z,85
2016-10-24T11:08:43.683Z,85
2016-10-24T11:09:57.219Z,90
2016-10-24T11:11:10.205Z,85
2016-10-24T11:12:22.086Z,90
2016-10-24T11:13:35.035Z,90
2016-10-24T11:14:48.228Z,95
2016-10-24T11:16:01.155Z,100
2016-10-24T11:17:13.403Z,100
2016-10-24T11:18:26.180Z,105
2016-10-24T11:19:38.323Z,110
2016-10-24T11:20:50.753Z,105
2016-10-24T11:22:03.214Z,90
2016-10-24T11:23:15.247Z,75
2016-10-24T11:24:28.919Z,70
2016-10-24T11:25:42.108Z,65
2016-10-24T11:26:55.122Z,65
2016-10-24T11:28:07.628Z,70
2016-10-24T11:29:20.071Z,75
2016-10-24T11:30:32.188Z,70
2016-10-24T11:31:45.207Z,70
2016-10-24T11:32:58.697Z,60
2016-10-24T11:34:10.621Z,65
2016-10-24T11:35:23.685Z,65
2016-10-24T11:36:36.335Z,65
2016-10-24T11:37:48.336Z,65
2016-10-24T11:39:02.043Z,65
2016-10-24T11:40:15.583Z,65
2016-10-24T11:41:27.688Z,65
2016-10-24T11:42:40.158Z,65
2016-10-24T11:43:52.600Z,65
2016-10-24T11:45:05.397Z,60
2016-10-24T11:46:18.829Z,60
2016-10-24T11:47:32.265Z,60
2016-10-24T11:48:49.817Z,60
2016-10-24T11:50:05.423Z,60
2016-10-24T11:51:18.981Z,60
2016-10-24T11:52:30.878Z,60
2016-10-24T11:53:44.551Z,60
2016-10-24T11:54:58.080Z,60
2016-10-24T11:56:11.635Z,65
2016-10-24T11:57:25.138Z,65
2016-10-24T11:58:37.551Z,65
2016-10-24T11:59:50.518Z,65
2016-10-24T12:01:02.957Z,65
2016-10-24T12:02:15.902Z,65
2016-10-24T12:03:28.504Z,65
2016-10-24T12:04:40.956Z,65
2016-10-24T12:05:53.922Z,65
2016-10-24T12:07:06.840Z,70
2016-10-24T12:08:20.230Z,70
2016-10-24T12:09:33.162Z,65
2016-10-24T12:10:46.151Z,65
2016-10-24T12:11:59.657Z,65
2016-10-24T12:13:13.782Z,60
2016-10-24T12:14:27.804Z,65
2016-10-24T12:15:41.437Z,70
2016-10-24T12:16:53.884Z,75
2016-10-24T12:18:07.364Z,75
2016-10-24T12:19:23.429Z,80
2016-10-24T12:20:37.120Z,75
2016-10-24T12:21:51.118Z,80
2016-10-24T12:23:04.743Z,85
2016-10-24T12:24:17.253Z,90
2016-10-24T12:25:30.801Z,90
2016-10-24T12:26:44.248Z,90
2016-10-24T12:27:56.147Z,90
2016-10-24T12:29:09.208Z,90
2016-10-24T12:30:22.386Z,75
2016-10-24T12:31:34.918Z,75
2016-10-24T12:32:48.543Z,80
2016-10-24T12:34:01.321Z,95
2016-10-24T12:35:13.867Z,95
2016-10-24T12:36:27.409Z,100
2016-10-24T12:37:39.972Z,105
2016-10-24T12:38:52.481Z,105
2016-10-24T12:40:04.438Z,100
2016-10-24T12:41:16.490Z,85
2016-10-24T12:42:29.808Z,75
2016-10-24T12:43:42.261Z,80
2016-10-24T12:44:55.217Z,80
2016-10-24T12:46:07.751Z,80
2016-10-24T12:47:20.236Z,80
2016-10-24T12:48:32.678Z,80
2016-10-24T12:49:44.585Z,80
2016-10-24T12:50:56.558Z,80
2016-10-24T12:52:10.314Z,80
2016-10-24T12:53:23.961Z,85
2016-10-24T12:54:35.992Z,85
2016-10-24T12:55:49.707Z,85
2016-10-24T12:57:03.267Z,85
2016-10-24T12:58:16.223Z,85
2016-10-24T12:59:28.668Z,85
2016-10-24T13:00:41.085Z,90
2016-10-24T13:01:54.528Z,90
2016-10-24T13:03:05.995Z,90
2016-10-24T13:04:18.523Z,90
2016-10-24T13:05:31.256Z,90
2016-10-24T13:06:44.374Z,90
2016-10-24T13:07:57.817Z,95
2016-10-24T13:09:09.723Z,95
2016-10-24T13:10:22.253Z,90
2016-10-24T13:11:34.112Z,95
2016-10-24T13:12:47.547Z,95
2016-10-24T13:13:59.623Z,95
2016-10-24T13:15:12.083Z,100
2016-10-24T13:16:25.048Z,95
2016-10-24T13:17:38.859Z,95
2016-10-24T13:18:51.210Z,100
2016-10-24T13:20:04.736Z,100
2016-10-24T13:21:17.970Z,100
2016-10-24T13:22:31.529Z,100
2016-10-24T13:23:44.460Z,100
2016-10-24T13:24:57.683Z,100
2016-10-24T13:26:11.444Z,105
2016-10-24T13:27:24.382Z,105
2016-10-24T13:28:37.306Z,105
2016-10-24T13:29:50.378Z,105
2016-10-24T13:31:03.464Z,105
2016-10-24T13:32:16.996Z,105
2016-10-24T13:33:28.407Z,110
2016-10-24T13:34:41.389Z,110
2016-10-24T13:35:54.462Z,110
2016-10-24T13:37:07.440Z,110
2016-10-24T13:38:19.914Z,110
2016-10-24T13:39:32.379Z,110
2016-10-24T13:40:45.821Z,115
2016-10-24T13:41:58.256Z,115
2016-10-24T13:43:11.272Z,115
2016-10-24T13:44:24.266Z,115
2016-10-24T13:45:36.675Z,115
2016-10-24T13:46:49.829Z,115
2016-10-24T13:48:03.277Z,115
2016-10-24T13:49:16.769Z,120
2016-10-24T13:50:29.253Z,120
2016-10-24T13:51:41.677Z,120
2016-10-24T13:52:54.722Z,125
2016-10-24T13:54:07.700Z,125
2016-10-24T13:55:21.300Z,125
2016-10-24T13:56:33.768Z,125
2016-10-24T13:57:45.831Z,125
2016-10-24T13:58:58.877Z,125
2016-10-24T14:00:12.355Z,125
2016-10-24T14:01:24.853Z,125
2016-10-24T14:02:38.310Z,130
2016-10-24T14:03:51.826Z,130
2016-10-24T14:05:04.741Z,130
2016-10-24T14:06:17.835Z,130
2016-10-24T14:07:30.359Z,130
2016-10-24T14:08:42.991Z,130
2016-10-24T14:09:55.884Z,130
2016-10-24T14:11:09.454Z,130
2016-10-24T14:12:23.031Z,130
2016-10-24T14:13:36.979Z,135
2016-10-24T14:14:52.018Z,135
2016-10-24T14:16:05.397Z,130
2016-10-24T14:17:18.467Z,135
2016-10-24T14:18:31.530Z,140
2016-10-24T14:19:44.146Z,135
2016-10-24T14:20:57.961Z,120
2016-10-24T14:22:10.931Z,125
2016-10-24T14:23:24.053Z,145
2016-10-24T14:24:38.529Z,140
2016-10-24T14:25:51.447Z,140
2016-10-24T14:27:04.402Z,130
2016-10-24T14:28:17.382Z,95
2016-10-24T14:29:29.826Z,95
2016-10-24T14:30:42.551Z,100
2016-10-24T14:32:26.480Z,140
2016-10-24T14:33:39.504Z,145
2016-10-24T14:34:52.469Z,145
2016-10-24T14:36:05.051Z,160
2016-10-24T14:37:18.578Z,170
2016-10-24T14:38:31.649Z,175
2016-10-24T14:39:44.613Z,175
2016-10-24T14:40:58.447Z,145
2016-10-24T14:42:11.963Z,115
2016-10-24T14:43:24.437Z,105
2016-10-24T14:44:36.921Z,100
2016-10-24T14:45:48.818Z,95
2016-10-24T14:47:01.100Z,100
2016-10-24T14:48:14.613Z,100
2016-10-24T14:49:28.193Z,115
2016-10-24T14:50:41.828Z,130
2016-10-24T14:51:55.131Z,140
2016-10-24T14:53:08.160Z,125
2016-10-24T14:54:21.187Z,130
2016-10-24T14:55:32.598Z,145
2016-10-24T14:56:45.116Z,140
2016-10-24T14:57:58.776Z,170
2016-10-24T14:59:12.044Z,195
2016-10-24T15:00:24.539Z,215
2016-10-24T15:01:36.950Z,180
2016-10-24T15:02:49.371Z,225
2016-10-24T15:04:02.512Z,200
2016-10-24T15:05:14.899Z,245
2016-10-24T15:06:27.437Z,250
2016-10-24T15:07:40.346Z,270
2016-10-24T15:08:53.028Z,280
2016-10-24T15:10:06.158Z,290
2016-10-24T15:11:18.181Z,290
2016-10-24T15:12:30.193Z,290
2016-10-24T15:13:43.784Z,300
2016-10-24T15:14:56.374Z,305
2016-10-24T15:16:08.789Z,315
2016-10-24T15:17:22.228Z,305
2016-10-24T15:18:35.288Z,305
2016-10-24T15:19:47.363Z,305
2016-10-24T15:21:00.393Z,320
2016-10-24T15:22:12.794Z,320
2016-10-24T15:23:25.701Z,330
2016-10-24T15:24:38.180Z,335
2016-10-24T15:25:50.042Z,325
2016-10-24T15:27:01.933Z,335
2016-10-24T15:28:15.513Z,325
2016-10-24T15:29:29.017Z,340
2016-10-24T15:30:41.670Z,325
2016-10-24T15:31:54.361Z,330
2016-10-24T15:33:07.461Z,315
2016-10-24T15:34:18.295Z,285
2016-10-24T15:35:30.179Z,295
2016-10-24T15:36:43.675Z,150
2016-10-24T15:37:56.712Z,150
2016-10-24T15:39:10.175Z,185
2016-10-24T15:40:22.111Z,135
2016-10-24T15:41:35.261Z,140
2016-10-24T15:42:48.241Z,135
2016-10-24T15:44:00.719Z,130
2016-10-24T15:45:13.328Z,120
2016-10-24T15:46:25.327Z,115
2016-10-24T15:47:38.848Z,120
2016-10-24T15:48:51.789Z,120
2016-10-24T15:50:05.335Z,135
2016-10-24T15:51:18.000Z,125
2016-10-24T15:52:30.148Z,115
2016-10-24T15:53:42.675Z,110
2016-10-24T15:54:56.111Z,110
2016-10-24T15:56:09.108Z,130
2016-10-24T15:57:21.549Z,155
2016-10-24T15:58:34.577Z,410
2016-10-24T15:59:47.737Z,415
2016-10-24T16:01:00.686Z,290
2016-10-24T16:02:14.212Z,465
2016-10-24T16:03:27.260Z,175
2016-10-24T16:04:39.990Z,285
2016-10-24T16:05:52.423Z,500
2016-10-24T16:07:06.766Z,400
2016-10-24T16:08:20.487Z,335
2016-10-24T16:09:33.462Z,475
2016-10-24T16:10:46.542Z,295
2016-10-24T16:12:00.128Z,140
2016-10-24T16:13:13.625Z,135
2016-10-24T16:14:27.493Z,125
2016-10-24T16:15:40.603Z,115
2016-10-24T16:16:54.144Z,125
2016-10-24T16:18:07.411Z,130
2016-10-24T16:19:21.059Z,160
2016-10-24T16:20:32.923Z,545
2016-10-24T16:21:45.910Z,555
2016-10-24T16:22:58.810Z,195
2016-10-24T16:24:11.390Z,485
2016-10-24T16:25:24.561Z,545
2016-10-24T16:26:37.051Z,555
2016-10-24T16:27:48.529Z,550
2016-10-24T16:29:00.975Z,555
2016-10-24T16:30:12.872Z,555
2016-10-24T16:31:25.851Z,555
2016-10-24T16:32:38.318Z,560
2016-10-24T16:33:51.800Z,555
2016-10-24T16:35:04.802Z,555
2016-10-24T16:36:17.837Z,550
2016-10-24T16:37:29.724Z,550
2016-10-24T16:38:43.196Z,540
2016-10-24T16:39:55.695Z,545
2016-10-24T16:41:08.623Z,545
2016-10-24T16:42:22.152Z,540
2016-10-24T16:43:34.073Z,540
2016-10-24T16:44:46.069Z,535
2016-10-24T16:45:59.673Z,535
2016-10-24T16:47:12.247Z,535
2016-10-24T16:48:25.304Z,535
2016-10-24T16:49:37.208Z,520
2016-10-24T16:50:50.219Z,525
2016-10-24T16:52:03.757Z,500
2016-10-24T16:53:16.316Z,495
2016-10-24T16:54:29.394Z,515
2016-10-24T16:55:41.881Z,515
2016-10-24T16:56:54.933Z,520
2016-10-24T16:58:07.436Z,515
2016-10-24T16:59:20.952Z,500
2016-10-24T17:00:33.410Z,485
2016-10-24T17:01:46.434Z,490
2016-10-24T17:02:57.921Z,500
2016-10-24T17:04:09.365Z,500
2016-10-24T17:05:21.859Z,505
2016-10-24T17:06:34.593Z,505
2016-10-24T17:07:46.676Z,500
2016-10-24T17:08:59.888Z,510
2016-10-24T17:10:12.341Z,515
2016-10-24T17:11:25.888Z,505
2016-10-24T17:12:38.624Z,500
2016-10-24T17:13:51.081Z,495
2016-10-24T17:15:03.530Z,475
2016-10-24T17:16:15.450Z,505
2016-10-24T17:17:28.478Z,525
2016-10-24T17:18:42.132Z,505
2016-10-24T17:19:54.219Z,515
2016-10-24T17:21:07.222Z,515
2016-10-24T17:22:20.725Z,390
2016-10-24T17:23:34.256Z,310
2016-10-24T17:24:47.425Z,200
2016-10-24T17:26:00.956Z,370
2016-10-24T17:27:13.628Z,445
2016-10-24T17:28:27.606Z,300
2016-10-24T17:29:40.687Z,145
2016-10-24T17:30:53.525Z,125